createdAt,value
2023-05-02T00:00:48.570Z,0.00
2023-05-02T00:01:48.617Z,0.00
2023-05-02T00:02:48.742Z,0.00
2023-05-02T00:03:48.716Z,0.00
2023-05-02T00:04:48.634Z,0.00
2023-05-02T00:05:48.653Z,0.00
2023-05-02T00:06:48.735Z,0.00
2023-05-02T00:07:48.696Z,0.00
2023-05-02T00:08:48.703Z,0.00
2023-05-02T00:09:48.721Z,0.00
2023-05-02T00:10:48.746Z,0.00
2023-05-02T00:11:48.764Z,0.00
2023-05-02T00:12:48.774Z,0.00
2023-05-02T00:13:48.796Z,0.00
2023-05-02T00:14:48.818Z,0.00
2023-05-02T00:15:48.834Z,0.00
2023-05-02T00:16:48.972Z,0.00
2023-05-02T00:17:48.920Z,0.00
2023-05-02T00:18:48.875Z,0.00
2023-05-02T00:19:48.901Z,0.00
2023-05-02T00:20:48.912Z,0.00
2023-05-02T00:21:48.940Z,0.00
2023-05-02T00:22:48.949Z,0.00
2023-05-02T00:23:48.961Z,0.00
2023-05-02T00:24:48.980Z,0.00
2023-05-02T00:25:48.998Z,0.00
2023-05-02T00:26:49.019Z,0.00
2023-05-02T00:27:49.036Z,0.00
2023-05-02T00:28:49.048Z,0.00
2023-05-02T00:29:49.071Z,0.00
2023-05-02T00:30:49.106Z,0.00
2023-05-02T00:31:49.099Z,0.00
2023-05-02T00:32:49.149Z,0.00
2023-05-02T00:33:49.135Z,0.00
2023-05-02T00:34:49.155Z,0.00
2023-05-02T00:35:49.176Z,0.00
2023-05-02T00:36:49.189Z,0.00
2023-05-02T00:37:49.206Z,0.00
2023-05-02T00:38:49.221Z,0.00
2023-05-02T00:39:49.257Z,0.00
2023-05-02T00:40:49.273Z,0.00
2023-05-02T00:41:49.276Z,0.00
2023-05-02T00:42:49.297Z,0.00
2023-05-02T00:43:49.309Z,0.00
2023-05-02T00:44:49.324Z,0.00
2023-05-02T00:45:49.341Z,0.00
2023-05-02T00:46:49.447Z,0.00
2023-05-02T00:47:49.466Z,0.00
2023-05-02T00:48:49.398Z,0.00
2023-05-02T00:49:49.411Z,0.00
2023-05-02T00:50:49.434Z,0.00
2023-05-02T00:51:49.446Z,0.00
2023-05-02T00:52:49.471Z,0.00
2023-05-02T00:53:49.495Z,0.00
2023-05-02T00:54:49.495Z,0.00
2023-05-02T00:55:49.541Z,0.00
2023-05-02T00:56:49.532Z,0.00
2023-05-02T00:57:49.550Z,0.00
2023-05-02T00:58:49.564Z,0.00
2023-05-02T00:59:49.578Z,0.00
2023-05-02T01:00:49.597Z,0.00
2023-05-02T01:01:49.703Z,0.00
2023-05-02T01:02:49.715Z,0.00
2023-05-02T01:03:49.775Z,0.00
2023-05-02T01:04:49.661Z,0.00
2023-05-02T01:05:49.681Z,0.00
2023-05-02T01:06:49.760Z,0.00
2023-05-02T01:07:49.711Z,0.00
2023-05-02T01:08:49.730Z,0.00
2023-05-02T01:09:49.747Z,0.00
2023-05-02T01:10:49.774Z,0.00
2023-05-02T01:11:49.782Z,0.00
2023-05-02T01:12:49.800Z,0.00
2023-05-02T01:13:49.810Z,0.00
2023-05-02T01:14:49.834Z,0.00
2023-05-02T01:15:49.861Z,0.00
2023-05-02T01:16:49.866Z,0.00
2023-05-02T01:17:49.916Z,0.00
2023-05-02T01:18:49.904Z,0.00
2023-05-02T01:19:49.915Z,0.00
2023-05-02T01:20:49.926Z,0.00
2023-05-02T01:21:49.943Z,0.00
2023-05-02T01:22:49.971Z,0.00
2023-05-02T01:23:49.987Z,0.00
2023-05-02T01:24:49.997Z,0.00
2023-05-02T01:25:50.011Z,0.00
2023-05-02T01:26:50.028Z,0.00
2023-05-02T01:27:50.044Z,0.00
2023-05-02T01:28:50.059Z,0.00
2023-05-02T01:29:50.076Z,0.00
2023-05-02T01:30:50.099Z,0.00
2023-05-02T01:31:50.153Z,0.00
2023-05-02T01:32:50.188Z,0.00
2023-05-02T01:33:50.142Z,0.00
2023-05-02T01:34:50.158Z,0.00
2023-05-02T01:35:50.191Z,0.00
2023-05-02T01:36:50.196Z,0.00
2023-05-02T01:37:50.210Z,0.00
2023-05-02T01:38:50.230Z,0.00
2023-05-02T01:39:50.254Z,0.00
2023-05-02T01:40:50.287Z,0.00
2023-05-02T01:41:50.277Z,0.00
2023-05-02T01:42:50.297Z,0.00
2023-05-02T01:43:50.314Z,0.00
2023-05-02T01:44:50.330Z,0.00
2023-05-02T01:45:50.346Z,0.00
2023-05-02T01:46:50.415Z,0.00
2023-05-02T01:47:50.449Z,0.00
2023-05-02T01:48:50.406Z,0.00
2023-05-02T01:49:50.413Z,0.00
2023-05-02T01:50:50.431Z,0.00
2023-05-02T01:51:50.458Z,0.00
2023-05-02T01:52:50.472Z,0.00
2023-05-02T01:53:50.483Z,0.00
2023-05-02T01:54:50.498Z,0.00
2023-05-02T01:55:50.513Z,0.00
2023-05-02T01:56:50.531Z,0.00
2023-05-02T01:57:50.576Z,0.00
2023-05-02T01:58:50.563Z,0.00
2023-05-02T01:59:50.579Z,0.00
2023-05-02T02:00:50.622Z,0.00
2023-05-02T02:01:50.614Z,0.00
2023-05-02T02:02:50.668Z,0.00
2023-05-02T02:03:50.715Z,0.00
2023-05-02T02:04:50.875Z,0.00
2023-05-02T02:05:50.680Z,0.00
2023-05-02T02:06:50.779Z,0.00
2023-05-02T02:07:50.710Z,0.00
2023-05-02T02:08:50.733Z,0.00
2023-05-02T02:09:50.768Z,0.00
2023-05-02T02:10:50.761Z,0.00
2023-05-02T02:11:50.774Z,0.00
2023-05-02T02:12:50.808Z,0.00
2023-05-02T02:13:50.819Z,0.00
2023-05-02T02:14:50.841Z,0.00
2023-05-02T02:15:50.857Z,0.00
2023-05-02T02:16:50.924Z,0.00
2023-05-02T02:17:50.918Z,0.00
2023-05-02T02:18:50.895Z,0.00
2023-05-02T02:19:50.906Z,0.00
2023-05-02T02:20:50.921Z,0.00
2023-05-02T02:21:50.937Z,0.00
2023-05-02T02:22:50.957Z,0.00
2023-05-02T02:23:50.972Z,0.00
2023-05-02T02:24:51.865Z,0.00
2023-05-02T02:25:51.013Z,0.00
2023-05-02T02:26:51.029Z,0.00
2023-05-02T02:27:51.037Z,0.00
2023-05-02T02:28:51.050Z,0.00
2023-05-02T02:29:51.076Z,0.00
2023-05-02T02:30:51.139Z,0.00
2023-05-02T02:31:51.103Z,0.00
2023-05-02T02:32:51.209Z,0.00
2023-05-02T02:33:51.128Z,0.00
2023-05-02T02:34:51.153Z,0.00
2023-05-02T02:35:51.167Z,0.00
2023-05-02T02:36:51.176Z,0.00
2023-05-02T02:37:51.212Z,0.00
2023-05-02T02:38:51.210Z,0.00
2023-05-02T02:39:51.243Z,0.00
2023-05-02T02:40:51.247Z,0.00
2023-05-02T02:41:51.254Z,0.00
2023-05-02T02:42:51.275Z,0.00
2023-05-02T02:43:51.288Z,0.00
2023-05-02T02:44:51.306Z,0.00
2023-05-02T02:45:51.382Z,0.00
2023-05-02T02:46:51.336Z,0.00
2023-05-02T02:47:51.400Z,0.00
2023-05-02T02:48:51.367Z,0.00
2023-05-02T02:49:51.393Z,0.00
2023-05-02T02:50:51.449Z,0.00
2023-05-02T02:51:51.425Z,0.00
2023-05-02T02:52:51.432Z,0.00
2023-05-02T02:53:51.450Z,0.00
2023-05-02T02:54:51.467Z,0.00
2023-05-02T02:55:51.475Z,0.00
2023-05-02T02:56:51.506Z,0.00
2023-05-02T02:57:51.507Z,4.00
2023-05-02T02:58:51.536Z,4.00
2023-05-02T02:59:51.535Z,4.00
2023-05-02T03:00:51.552Z,0.00
2023-05-02T03:01:51.606Z,4.00
2023-05-02T03:02:51.629Z,4.00
2023-05-02T03:03:51.610Z,4.00
2023-05-02T03:04:51.616Z,4.00
2023-05-02T03:05:51.629Z,8.00
2023-05-02T03:06:51.663Z,8.00
2023-05-02T03:07:51.658Z,8.00
2023-05-02T03:08:51.674Z,8.00
2023-05-02T03:09:51.702Z,12.00
2023-05-02T03:10:51.706Z,16.00
2023-05-02T03:11:51.745Z,16.00
2023-05-02T03:12:51.743Z,16.00
2023-05-02T03:13:51.753Z,20.00
2023-05-02T03:14:51.774Z,24.00
2023-05-02T03:15:51.870Z,24.00
2023-05-02T03:16:51.805Z,28.00
2023-05-02T03:17:51.868Z,32.00
2023-05-02T03:18:51.845Z,40.00
2023-05-02T03:19:51.841Z,44.00
2023-05-02T03:20:51.870Z,52.00
2023-05-02T03:21:51.901Z,60.00
2023-05-02T03:22:51.910Z,64.00
2023-05-02T03:23:51.925Z,72.00
2023-05-02T03:24:51.927Z,80.00
2023-05-02T03:25:51.936Z,92.00
2023-05-02T03:26:51.951Z,104.00
2023-05-02T03:27:51.967Z,116.00
2023-05-02T03:28:51.983Z,124.00
2023-05-02T03:29:52.001Z,136.00
2023-05-02T03:30:52.011Z,152.00
2023-05-02T03:31:52.073Z,168.00
2023-05-02T03:32:52.089Z,180.00
2023-05-02T03:33:52.055Z,196.00
2023-05-02T03:34:52.072Z,216.00
2023-05-02T03:35:52.085Z,228.00
2023-05-02T03:36:52.104Z,248.00
2023-05-02T03:37:52.120Z,264.00
2023-05-02T03:38:52.136Z,288.00
2023-05-02T03:39:52.162Z,312.00
2023-05-02T03:40:52.168Z,336.00
2023-05-02T03:41:52.190Z,364.00
2023-05-02T03:42:52.194Z,388.00
2023-05-02T03:43:52.208Z,412.00
2023-05-02T03:44:52.217Z,440.00
2023-05-02T03:45:52.238Z,468.00
2023-05-02T03:46:52.334Z,492.00
2023-05-02T03:47:52.324Z,520.00
2023-05-02T03:48:52.280Z,552.00
2023-05-02T03:49:52.297Z,580.00
2023-05-02T03:50:52.317Z,608.00
2023-05-02T03:51:52.328Z,640.00
2023-05-02T03:52:52.340Z,668.00
2023-05-02T03:53:52.357Z,700.00
2023-05-02T03:54:52.384Z,736.00
2023-05-02T03:55:52.403Z,772.00
2023-05-02T03:56:52.403Z,812.00
2023-05-02T03:57:52.419Z,856.00
2023-05-02T03:58:52.436Z,904.00
2023-05-02T03:59:52.447Z,964.00
2023-05-02T04:00:52.466Z,1024.00
2023-05-02T04:01:52.498Z,1092.00
2023-05-02T04:02:52.642Z,1156.00
2023-05-02T04:03:52.555Z,1220.00
2023-05-02T04:04:52.520Z,1280.00
2023-05-02T04:05:52.535Z,1340.00
2023-05-02T04:06:52.576Z,1392.00
2023-05-02T04:07:52.574Z,1440.00
2023-05-02T04:08:52.585Z,1480.00
2023-05-02T04:09:52.598Z,1532.00
2023-05-02T04:10:52.619Z,1580.00
2023-05-02T04:11:52.632Z,1632.00
2023-05-02T04:12:52.639Z,1688.00
2023-05-02T04:13:53.359Z,1756.00
2023-05-02T04:14:52.672Z,1828.00
2023-05-02T04:15:52.686Z,1912.00
2023-05-02T04:16:52.847Z,1996.00
2023-05-02T04:17:52.760Z,2088.00
2023-05-02T04:18:52.732Z,2188.00
2023-05-02T04:19:52.760Z,2284.00
2023-05-02T04:20:52.768Z,2380.00
2023-05-02T04:21:52.776Z,2472.00
2023-05-02T04:22:52.796Z,2548.00
2023-05-02T04:23:52.809Z,2600.00
2023-05-02T04:24:52.822Z,2644.00
2023-05-02T04:25:52.835Z,2676.00
2023-05-02T04:26:52.855Z,2736.00
2023-05-02T04:27:52.869Z,2824.00
2023-05-02T04:28:52.884Z,2928.00
2023-05-02T04:29:52.894Z,3020.00
2023-05-02T04:30:52.956Z,3088.00
2023-05-02T04:31:52.932Z,3144.00
2023-05-02T04:32:53.069Z,3184.00
2023-05-02T04:33:52.963Z,3228.00
2023-05-02T04:34:52.973Z,3260.00
2023-05-02T04:35:53.015Z,3292.00
2023-05-02T04:36:53.000Z,3316.00
2023-05-02T04:37:53.016Z,3368.00
2023-05-02T04:38:53.033Z,3420.00
2023-05-02T04:39:53.046Z,3472.00
2023-05-02T04:40:53.070Z,3536.00
2023-05-02T04:41:53.082Z,3628.00
2023-05-02T04:42:53.101Z,3740.00
2023-05-02T04:43:53.106Z,3844.00
2023-05-02T04:44:53.123Z,3908.00
2023-05-02T04:45:53.156Z,3936.00
2023-05-02T04:46:53.390Z,3928.00
2023-05-02T04:47:53.229Z,3892.00
2023-05-02T04:48:53.191Z,3816.00
2023-05-02T04:49:53.198Z,3716.00
2023-05-02T04:50:53.216Z,3580.00
2023-05-02T04:51:53.230Z,3456.00
2023-05-02T04:52:53.246Z,3372.00
2023-05-02T04:53:53.277Z,3296.00
2023-05-02T04:54:53.277Z,3280.00
2023-05-02T04:55:53.295Z,3288.00
2023-05-02T04:56:53.308Z,3304.00
2023-05-02T04:57:53.348Z,3332.00
2023-05-02T04:58:53.341Z,3364.00
2023-05-02T04:59:53.373Z,3380.00
2023-05-02T05:00:53.371Z,3368.00
2023-05-02T05:01:53.457Z,3356.00
2023-05-02T05:02:53.482Z,3356.00
2023-05-02T05:03:53.488Z,3368.00
2023-05-02T05:04:53.461Z,3360.00
2023-05-02T05:05:53.459Z,3360.00
2023-05-02T05:06:53.638Z,3372.00
2023-05-02T05:07:53.483Z,3384.00
2023-05-02T05:08:53.500Z,3384.00
2023-05-02T05:09:53.724Z,3420.00
2023-05-02T05:10:53.532Z,3484.00
2023-05-02T05:11:53.545Z,3576.00
2023-05-02T05:12:53.564Z,3688.00
2023-05-02T05:13:53.575Z,3836.00
2023-05-02T05:14:53.599Z,4004.00
2023-05-02T05:15:53.680Z,4192.00
2023-05-02T05:16:53.628Z,4376.00
2023-05-02T05:17:53.680Z,4556.00
2023-05-02T05:18:53.658Z,4756.00
2023-05-02T05:19:53.700Z,4996.00
2023-05-02T05:20:53.704Z,5256.00
2023-05-02T05:21:53.709Z,5560.00
2023-05-02T05:22:53.720Z,5936.00
2023-05-02T05:23:53.754Z,6356.00
2023-05-02T05:24:53.835Z,6768.00
2023-05-02T05:25:53.775Z,7068.00
2023-05-02T05:26:53.786Z,7260.00
2023-05-02T05:27:53.806Z,7436.00
2023-05-02T05:28:53.837Z,7608.00
2023-05-02T05:29:53.842Z,7692.00
2023-05-02T05:30:53.855Z,8000.00
2023-05-02T05:31:53.956Z,8884.00
2023-05-02T05:32:53.910Z,11456.00
2023-05-02T05:33:53.980Z,11728.00
2023-05-02T05:34:53.911Z,9388.00
2023-05-02T05:35:53.930Z,10236.00
2023-05-02T05:36:53.957Z,11696.00
2023-05-02T05:37:53.964Z,11568.00
2023-05-02T05:38:53.983Z,10504.00
2023-05-02T05:39:53.993Z,9408.00
2023-05-02T05:40:54.013Z,9168.00
2023-05-02T05:41:54.021Z,9232.00
2023-05-02T05:42:54.049Z,9256.00
2023-05-02T05:43:54.070Z,8680.00
2023-05-02T05:44:54.086Z,8788.00
2023-05-02T05:45:54.097Z,9056.00
2023-05-02T05:46:54.137Z,8564.00
2023-05-02T05:47:54.156Z,8704.00
2023-05-02T05:48:54.139Z,8964.00
2023-05-02T05:49:54.164Z,9456.00
2023-05-02T05:50:54.181Z,9668.00
2023-05-02T05:51:54.209Z,10136.00
2023-05-02T05:52:54.216Z,9148.00
2023-05-02T05:53:54.226Z,9820.00
2023-05-02T05:54:54.236Z,10432.00
2023-05-02T05:55:54.262Z,10096.00
2023-05-02T05:56:54.276Z,9472.00
2023-05-02T05:57:54.332Z,9552.00
2023-05-02T05:58:54.305Z,9904.00
2023-05-02T05:59:54.332Z,10168.00
2023-05-02T06:00:54.359Z,10444.00
2023-05-02T06:01:54.352Z,10960.00
2023-05-02T06:02:54.485Z,10304.00
2023-05-02T06:03:54.409Z,10860.00
2023-05-02T06:04:54.459Z,10956.00
2023-05-02T06:05:54.427Z,9988.00
2023-05-02T06:06:54.472Z,10716.00
2023-05-02T06:07:54.457Z,10560.00
2023-05-02T06:08:54.477Z,10276.00
2023-05-02T06:09:54.514Z,10956.00
2023-05-02T06:10:54.503Z,11676.00
2023-05-02T06:11:54.518Z,12732.00
2023-05-02T06:12:54.543Z,10708.00
2023-05-02T06:13:54.560Z,10612.00
2023-05-02T06:14:54.577Z,10784.00
2023-05-02T06:15:54.595Z,11256.00
2023-05-02T06:16:54.612Z,11716.00
2023-05-02T06:17:54.676Z,11756.00
2023-05-02T06:18:54.646Z,12828.00
2023-05-02T06:19:54.653Z,16448.00
2023-05-02T06:20:54.669Z,18752.00
2023-05-02T06:21:54.696Z,22528.00
2023-05-02T06:22:54.710Z,26528.00
2023-05-02T06:23:54.744Z,29024.00
2023-05-02T06:24:54.735Z,30080.00
2023-05-02T06:25:54.758Z,29152.00
2023-05-02T06:26:54.776Z,29536.00
2023-05-02T06:27:54.796Z,29632.00
2023-05-02T06:28:54.830Z,29184.00
2023-05-02T06:29:54.830Z,28032.00
2023-05-02T06:30:54.846Z,28384.00
2023-05-02T06:31:54.904Z,28544.00
2023-05-02T06:32:54.926Z,27968.00
2023-05-02T06:33:54.892Z,24832.00
2023-05-02T06:34:54.913Z,29184.00
2023-05-02T06:35:54.929Z,27200.00
2023-05-02T06:36:54.952Z,31168.00
2023-05-02T06:37:54.973Z,33568.00
2023-05-02T06:38:54.991Z,32608.00
2023-05-02T06:39:55.008Z,34432.00
2023-05-02T06:40:55.029Z,35008.00
2023-05-02T06:41:55.046Z,33216.00
2023-05-02T06:42:55.074Z,33664.00
2023-05-02T06:43:55.083Z,33056.00
2023-05-02T06:44:55.110Z,33120.00
2023-05-02T06:45:55.123Z,34816.00
2023-05-02T06:46:55.251Z,15844.00
2023-05-02T06:47:55.227Z,31776.00
2023-05-02T06:48:55.178Z,31936.00
2023-05-02T06:49:55.204Z,33184.00
2023-05-02T06:50:55.232Z,31104.00
2023-05-02T06:51:55.246Z,27168.00
2023-05-02T06:52:55.262Z,18976.00
2023-05-02T06:53:55.295Z,21184.00
2023-05-02T06:54:55.320Z,17888.00
2023-05-02T06:55:55.323Z,21056.00
2023-05-02T06:56:55.356Z,20992.00
2023-05-02T06:57:55.368Z,19200.00
2023-05-02T06:58:55.383Z,14128.00
2023-05-02T06:59:55.402Z,14244.00
2023-05-02T07:00:55.440Z,10312.00
2023-05-02T07:01:55.442Z,8864.00
2023-05-02T07:02:55.583Z,10868.00
2023-05-02T07:03:55.504Z,11692.00
2023-05-02T07:04:55.519Z,10556.00
2023-05-02T07:05:55.528Z,14424.00
2023-05-02T07:06:55.657Z,17408.00
2023-05-02T07:07:55.562Z,14616.00
2023-05-02T07:08:55.580Z,11924.00
2023-05-02T07:09:55.605Z,10168.00
2023-05-02T07:10:55.623Z,10304.00
2023-05-02T07:11:55.642Z,9376.00
2023-05-02T07:12:55.660Z,8976.00
2023-05-02T07:13:55.708Z,11032.00
2023-05-02T07:14:55.697Z,9256.00
2023-05-02T07:15:55.730Z,9040.00
2023-05-02T07:16:55.904Z,9344.00
2023-05-02T07:17:55.818Z,10244.00
2023-05-02T07:18:55.792Z,10712.00
2023-05-02T07:19:55.799Z,12276.00
2023-05-02T07:20:55.811Z,15012.00
2023-05-02T07:21:55.833Z,13832.00
2023-05-02T07:22:55.850Z,9980.00
2023-05-02T07:23:55.864Z,9016.00
2023-05-02T07:24:55.888Z,9736.00
2023-05-02T07:25:55.903Z,6668.00
2023-05-02T07:26:55.919Z,6236.00
2023-05-02T07:27:55.940Z,6896.00
2023-05-02T07:28:55.958Z,7072.00
2023-05-02T07:29:55.976Z,8756.00
2023-05-02T07:30:55.997Z,9796.00
2023-05-02T07:31:56.057Z,10888.00
2023-05-02T07:32:56.090Z,14084.00
2023-05-02T07:33:56.052Z,13280.00
2023-05-02T07:34:56.087Z,11176.00
2023-05-02T07:35:56.090Z,12560.00
2023-05-02T07:36:56.102Z,11456.00
2023-05-02T07:37:56.125Z,11304.00
2023-05-02T07:38:56.154Z,11372.00
2023-05-02T07:39:56.160Z,8768.00
2023-05-02T07:40:56.181Z,9496.00
2023-05-02T07:41:56.199Z,9792.00
2023-05-02T07:42:56.221Z,9692.00
2023-05-02T07:43:56.242Z,10204.00
2023-05-02T07:44:56.259Z,9640.00
2023-05-02T07:45:56.368Z,11048.00
2023-05-02T07:46:56.316Z,13168.00
2023-05-02T07:47:56.385Z,13652.00
2023-05-02T07:48:56.336Z,13252.00
2023-05-02T07:49:56.367Z,12492.00
2023-05-02T07:50:56.376Z,13456.00
2023-05-02T07:51:56.385Z,14240.00
2023-05-02T07:52:56.418Z,15992.00
2023-05-02T07:53:56.429Z,14728.00
2023-05-02T07:54:56.450Z,13184.00
2023-05-02T07:55:56.465Z,13644.00
2023-05-02T07:56:56.487Z,15436.00
2023-05-02T07:57:56.509Z,15816.00
2023-05-02T07:58:56.525Z,13900.00
2023-05-02T07:59:56.542Z,12916.00
2023-05-02T08:00:56.560Z,15076.00
2023-05-02T08:01:56.579Z,15900.00
2023-05-02T08:02:56.656Z,14600.00
2023-05-02T08:03:56.817Z,14544.00
2023-05-02T08:04:56.681Z,12796.00
2023-05-02T08:05:56.655Z,13884.00
2023-05-02T08:06:56.755Z,18080.00
2023-05-02T08:07:56.696Z,22464.00
2023-05-02T08:08:56.729Z,21728.00
2023-05-02T08:09:56.748Z,22688.00
2023-05-02T08:10:56.755Z,22624.00
2023-05-02T08:11:56.777Z,17568.00
2023-05-02T08:12:56.800Z,13308.00
2023-05-02T08:13:56.815Z,14244.00
2023-05-02T08:14:56.839Z,15552.00
2023-05-02T08:15:56.922Z,17280.00
2023-05-02T08:16:56.879Z,20224.00
2023-05-02T08:17:56.970Z,20928.00
2023-05-02T08:18:56.925Z,21248.00
2023-05-02T08:19:57.202Z,23392.00
2023-05-02T08:20:56.961Z,21696.00
2023-05-02T08:21:56.986Z,19200.00
2023-05-02T08:22:58.625Z,18496.00
2023-05-02T08:23:57.025Z,20256.00
2023-05-02T08:24:57.039Z,23904.00
2023-05-02T08:25:57.065Z,25344.00
2023-05-02T08:26:57.091Z,24672.00
2023-05-02T08:27:57.102Z,25856.00
2023-05-02T08:28:57.119Z,27520.00
2023-05-02T08:29:58.615Z,26432.00
2023-05-02T08:30:57.160Z,24864.00
2023-05-02T08:31:57.233Z,23872.00
2023-05-02T08:32:57.247Z,25792.00
2023-05-02T08:33:57.250Z,26912.00
2023-05-02T08:34:57.254Z,24096.00
2023-05-02T08:35:57.275Z,19488.00
2023-05-02T08:36:58.475Z,15396.00
2023-05-02T08:37:57.310Z,14104.00
2023-05-02T08:38:57.332Z,14584.00
2023-05-02T08:39:57.363Z,15368.00
2023-05-02T08:40:57.378Z,15012.00
2023-05-02T08:41:57.394Z,13964.00
2023-05-02T08:42:57.417Z,13736.00
2023-05-02T08:43:57.433Z,14184.00
2023-05-02T08:44:57.461Z,14592.00
2023-05-02T08:45:57.483Z,14336.00
2023-05-02T08:46:57.580Z,13644.00
2023-05-02T08:47:57.577Z,11584.00
2023-05-02T08:48:57.544Z,9780.00
2023-05-02T08:49:57.795Z,8940.00
2023-05-02T08:50:57.584Z,8208.00
2023-05-02T08:51:57.676Z,8052.00
2023-05-02T08:52:57.632Z,7672.00
2023-05-02T08:53:57.649Z,7076.00
2023-05-02T08:54:57.721Z,6572.00
2023-05-02T08:55:57.686Z,6288.00
2023-05-02T08:56:57.705Z,6628.00
2023-05-02T08:57:57.730Z,7976.00
2023-05-02T08:58:57.752Z,10008.00
2023-05-02T08:59:57.774Z,10156.00
2023-05-02T09:00:57.847Z,8512.00
2023-05-02T09:01:57.816Z,7528.00
2023-05-02T09:02:57.865Z,8368.00
2023-05-02T09:03:57.888Z,10548.00
2023-05-02T09:04:58.228Z,12360.00
2023-05-02T09:05:57.887Z,14764.00
2023-05-02T09:06:57.910Z,17824.00
2023-05-02T09:07:57.940Z,19872.00
2023-05-02T09:08:57.949Z,21568.00
2023-05-02T09:09:57.973Z,23072.00
2023-05-02T09:10:58.002Z,23648.00
2023-05-02T09:11:58.023Z,22368.00
2023-05-02T09:12:58.027Z,21280.00
2023-05-02T09:13:58.049Z,21248.00
2023-05-02T09:14:58.173Z,21120.00
2023-05-02T09:15:58.116Z,19104.00
2023-05-02T09:16:58.339Z,16528.00
2023-05-02T09:17:58.160Z,14440.00
2023-05-02T09:18:58.162Z,12700.00
2023-05-02T09:19:58.170Z,10712.00
2023-05-02T09:20:58.193Z,8884.00
2023-05-02T09:21:58.215Z,7816.00
2023-05-02T09:22:58.232Z,6560.00
2023-05-02T09:23:58.262Z,5696.00
2023-05-02T09:24:58.461Z,6824.00
2023-05-02T09:25:58.296Z,10172.00
2023-05-02T09:26:58.315Z,13220.00
2023-05-02T09:27:58.334Z,17052.00
2023-05-02T09:28:58.354Z,19264.00
2023-05-02T09:29:58.377Z,19232.00
2023-05-02T09:30:58.411Z,18048.00
2023-05-02T09:31:58.465Z,16648.00
2023-05-02T09:32:58.503Z,15684.00
2023-05-02T09:33:58.455Z,17632.00
2023-05-02T09:34:58.583Z,20224.00
2023-05-02T09:35:58.506Z,21472.00
2023-05-02T09:36:58.513Z,21984.00
2023-05-02T09:37:58.536Z,24000.00
2023-05-02T09:38:58.554Z,24512.00
2023-05-02T09:39:58.572Z,24768.00
2023-05-02T09:40:58.599Z,24992.00
2023-05-02T09:41:58.624Z,21408.00
2023-05-02T09:42:58.633Z,19616.00
2023-05-02T09:43:58.655Z,17600.00
2023-05-02T09:44:58.926Z,14012.00
2023-05-02T09:45:58.730Z,11104.00
2023-05-02T09:46:58.712Z,9516.00
2023-05-02T09:47:58.769Z,9300.00
2023-05-02T09:48:58.757Z,8916.00
2023-05-02T09:49:58.779Z,9328.00
2023-05-02T09:50:58.797Z,9936.00
2023-05-02T09:51:58.817Z,10096.00
2023-05-02T09:52:58.837Z,9748.00
2023-05-02T09:53:58.866Z,9460.00
2023-05-02T09:54:59.063Z,9412.00
2023-05-02T09:55:58.901Z,9376.00
2023-05-02T09:56:59.001Z,9688.00
2023-05-02T09:57:58.941Z,10512.00
2023-05-02T09:58:58.977Z,11672.00
2023-05-02T09:59:58.981Z,12444.00
2023-05-02T10:00:59.013Z,12676.00
2023-05-02T10:01:59.130Z,12156.00
2023-05-02T10:02:59.088Z,12272.00
2023-05-02T10:03:59.111Z,13524.00
2023-05-02T10:04:59.372Z,15220.00
2023-05-02T10:05:59.121Z,15068.00
2023-05-02T10:06:59.119Z,14288.00
2023-05-02T10:07:59.140Z,14128.00
2023-05-02T10:08:59.156Z,14932.00
2023-05-02T10:09:59.174Z,15388.00
2023-05-02T10:10:59.255Z,15088.00
2023-05-02T10:11:59.214Z,12248.00
2023-05-02T10:12:59.229Z,12212.00
2023-05-02T10:13:59.257Z,13244.00
2023-05-02T10:14:59.483Z,10664.00
2023-05-02T10:15:59.368Z,9456.00
2023-05-02T10:16:59.309Z,9304.00
2023-05-02T10:17:59.366Z,8936.00
2023-05-02T10:18:59.353Z,8256.00
2023-05-02T10:19:59.372Z,7820.00
2023-05-02T10:20:59.394Z,7088.00
2023-05-02T10:21:59.417Z,6312.00
2023-05-02T10:22:59.427Z,6748.00
2023-05-02T10:23:59.450Z,9104.00
2023-05-02T10:24:59.719Z,13548.00
2023-05-02T10:26:00.121Z,16672.00
2023-05-02T10:26:59.520Z,16764.00
2023-05-02T10:27:59.525Z,14928.00
2023-05-02T10:28:59.551Z,11596.00
2023-05-02T10:29:59.585Z,9768.00
2023-05-02T10:30:59.656Z,8636.00
2023-05-02T10:31:59.648Z,6924.00
2023-05-02T10:32:59.682Z,5344.00
2023-05-02T10:33:59.644Z,4792.00
2023-05-02T10:34:59.766Z,4428.00
2023-05-02T10:35:59.681Z,5240.00
2023-05-02T10:36:59.693Z,5756.00
2023-05-02T10:37:59.716Z,5720.00
2023-05-02T10:38:59.731Z,6464.00
2023-05-02T10:39:59.758Z,8260.00
2023-05-02T10:40:59.770Z,9816.00
2023-05-02T10:41:59.788Z,9196.00
2023-05-02T10:42:59.813Z,9452.00
2023-05-02T10:43:59.830Z,8596.00
2023-05-02T10:45:00.022Z,8612.00
2023-05-02T10:45:59.860Z,8280.00
2023-05-02T10:46:59.937Z,7824.00
2023-05-02T10:47:59.947Z,7096.00
2023-05-02T10:48:59.916Z,6488.00
2023-05-02T10:49:59.944Z,5884.00
2023-05-02T10:50:59.953Z,5688.00
2023-05-02T10:51:59.972Z,6404.00
2023-05-02T10:52:59.997Z,6656.00
2023-05-02T10:54:00.007Z,6364.00
2023-05-02T10:55:00.264Z,5976.00
2023-05-02T10:56:00.061Z,5556.00
2023-05-02T10:57:00.065Z,5664.00
2023-05-02T10:58:00.106Z,5568.00
2023-05-02T10:59:00.116Z,5604.00
2023-05-02T11:00:00.140Z,5784.00
2023-05-02T11:01:00.154Z,6080.00
2023-05-02T11:02:00.205Z,6988.00
2023-05-02T11:03:00.388Z,8656.00
2023-05-02T11:04:00.187Z,9756.00
2023-05-02T11:05:00.353Z,10132.00
2023-05-02T11:06:00.247Z,9752.00
2023-05-02T11:07:00.240Z,8524.00
2023-05-02T11:08:00.265Z,7976.00
2023-05-02T11:09:00.270Z,8736.00
2023-05-02T11:10:00.289Z,10700.00
2023-05-02T11:11:00.312Z,13176.00
2023-05-02T11:12:00.321Z,13592.00
2023-05-02T11:13:00.345Z,13472.00
2023-05-02T11:14:00.374Z,16100.00
2023-05-02T11:15:00.735Z,20128.00
2023-05-02T11:16:00.390Z,22912.00
2023-05-02T11:17:00.564Z,19552.00
2023-05-02T11:18:00.495Z,16916.00
2023-05-02T11:19:00.449Z,18976.00
2023-05-02T11:20:00.484Z,20288.00
2023-05-02T11:21:00.480Z,17856.00
2023-05-02T11:22:00.494Z,17040.00
2023-05-02T11:23:00.512Z,18816.00
2023-05-02T11:24:00.536Z,18816.00
2023-05-02T11:25:00.895Z,17312.00
2023-05-02T11:26:00.610Z,19040.00
2023-05-02T11:27:00.582Z,22272.00
2023-05-02T11:28:00.604Z,25216.00
2023-05-02T11:29:00.617Z,28608.00
2023-05-02T11:30:00.649Z,30464.00
2023-05-02T11:31:00.691Z,34752.00
2023-05-02T11:32:00.822Z,28928.00
2023-05-02T11:33:00.701Z,25152.00
2023-05-02T11:34:00.702Z,24992.00
2023-05-02T11:35:01.050Z,22048.00
2023-05-02T11:36:00.742Z,20256.00
2023-05-02T11:37:00.765Z,19680.00
2023-05-02T11:38:00.774Z,19488.00
2023-05-02T11:39:00.796Z,17888.00
2023-05-02T11:40:00.852Z,18400.00
2023-05-02T11:41:00.835Z,21696.00
2023-05-02T11:42:00.855Z,25600.00
2023-05-02T11:43:00.877Z,26336.00
2023-05-02T11:44:00.887Z,23872.00
2023-05-02T11:45:01.355Z,22880.00
2023-05-02T11:46:00.954Z,23520.00
2023-05-02T11:47:00.954Z,23232.00
2023-05-02T11:48:01.007Z,22208.00
2023-05-02T11:49:00.985Z,21184.00
2023-05-02T11:50:00.999Z,20896.00
2023-05-02T11:51:01.018Z,21952.00
2023-05-02T11:52:01.044Z,20960.00
2023-05-02T11:53:01.060Z,19872.00
2023-05-02T11:54:01.107Z,19552.00
2023-05-02T11:55:01.289Z,19040.00
2023-05-02T11:56:01.171Z,18048.00
2023-05-02T11:57:01.133Z,19072.00
2023-05-02T11:58:01.157Z,21472.00
2023-05-02T11:59:01.186Z,22944.00
2023-05-02T12:00:01.208Z,23584.00
2023-05-02T12:01:01.227Z,22112.00
2023-05-02T12:02:01.233Z,17984.00
2023-05-02T12:03:01.286Z,15704.00
2023-05-02T12:04:01.360Z,15812.00
2023-05-02T12:05:01.577Z,16860.00
2023-05-02T12:06:01.368Z,17216.00
2023-05-02T12:07:01.359Z,16068.00
2023-05-02T12:08:01.348Z,14936.00
2023-05-02T12:09:01.361Z,14204.00
2023-05-02T12:10:01.381Z,13792.00
2023-05-02T12:11:01.419Z,13236.00
2023-05-02T12:12:01.416Z,12520.00
2023-05-02T12:13:01.443Z,13400.00
2023-05-02T12:14:01.454Z,16436.00
2023-05-02T12:15:01.776Z,19488.00
2023-05-02T12:16:01.556Z,21056.00
2023-05-02T12:17:01.508Z,21792.00